Time;durP1;ratioP1;P1;durP2;ratioP2;P2;SDS_P1;SDS_P2;PMS_P1;PMS_P2;Temp;Humidity;BMP_temperature;BMP_pressure;BME280_temperature;BME280_humidity;BME280_pressure;Samples;Min_cycle;Max_cycle;Signal;HPM_P1;HPM_P2
2023/03/28 00:00:56;;;;;;;;;;;;;;;;;;4928410;29;19930;-85
2023/03/28 00:03:28;;;;;;;;;;;;;;;;;;4931414;29;19930;-85
2023/03/28 00:05:59;;;;;;;;;;;;;;;;;;4908058;29;19931;-85
2023/03/28 00:08:28;;;;;;;;;;;;;;;;;;4940457;28;19923;-85
2023/03/28 00:11:01;;;;;;;;;;;;;;;;;;4947917;28;19923;-85
2023/03/28 00:13:29;;;;;;;;;;;;;;;;;;4927608;29;19923;-85
2023/03/28 00:16:00;;;;;;;;;;;;;;;;;;4921068;29;20306;-85
2023/03/28 00:18:28;;;;;;;;;;;;;;;;;;4936251;29;19929;-84
2023/03/28 00:20:58;;;;;;;;;;;;;;;;;;4937412;29;20172;-84
2023/03/28 00:23:26;;;;;;;;;;;;;;;;;;4923052;29;19922;-85
2023/03/28 00:25:53;;;;;;;;;;;;;;;;;;4913432;29;20348;-85
2023/03/28 00:28:20;;;;;;;;;;;;;;;;;;4931456;29;19926;-84
2023/03/28 00:30:47;;;;;;;;;;;;;;;;;;4931897;29;19922;-84
2023/03/28 00:33:14;;;;;;;;;;;;;;;;;;4925544;29;20023;-85
2023/03/28 00:35:43;;;;;;;;;;;;;;;;;;4922257;29;20401;-84
2023/03/28 00:38:12;;;;;;;;;;;;;;;;;;4935487;29;19922;-84
2023/03/28 00:40:39;;;;;;;;;;;;;;;;;;4934716;29;19928;-84
2023/03/28 00:43:06;;;;;;;;;;;;;;;;;;4931940;29;19929;-85
2023/03/28 00:45:33;;;;;;;;;;;;;;;;;;4930260;29;19922;-84
2023/03/28 00:48:02;;;;;;;;;;;;;;;;;;4937828;29;19922;-84
2023/03/28 00:50:29;;;;;;;;;;;;;;;;;;4936302;29;19923;-84
2023/03/28 00:52:58;;;;;;;;;;;;;;;;;;4941100;28;19930;-85
2023/03/28 00:55:29;;;;;;;;;;;;;;;;;;4915098;29;19927;-85
2023/03/28 00:57:58;;;;;;;;;;;;;;;;;;4934178;29;20305;-84
2023/03/28 01:00:25;;;;;;;;;;;;;;;;;;4941734;29;19922;-84
2023/03/28 01:03:00;;;;;;;;;;;;;;;;;;4934161;29;19926;-84
2023/03/28 01:05:28;;;;;;;;;;;;;;;;;;4928878;29;19946;-84
2023/03/28 01:08:00;;;;;;;;;;;;;;;;;;4940458;28;20038;-84
2023/03/28 01:10:30;;;;;;;;;;;;;;;;;;4927043;29;19922;-84
2023/03/28 01:12:57;;;;;;;;;;;;;;;;;;4935619;29;19931;-85
2023/03/28 01:15:24;;;;;;;;;;;;;;;;;;4936816;29;19946;-84
2023/03/28 01:17:56;;;;;;;;;;;;;;;;;;4950420;28;19937;-84
2023/03/28 01:20:28;;;;;;;;;;;;;;;;;;4929673;29;20635;-84
2023/03/28 01:23:04;;;;;;;;;;;;;;;;;;4946299;29;19937;-84
2023/03/28 01:25:42;;;;;;;;;;;;;;;;;;4947873;29;19945;-84
2023/03/28 01:28:15;;;;;;;;;;;;;;;;;;4933970;29;19923;-84
2023/03/28 01:30:55;;;;;;;;;;;;;;;;;;4938880;29;20309;-84
2023/03/28 01:33:44;;;;;;;;;;;;;;;;;;4942539;29;19922;-84
2023/03/28 01:36:19;;;;;;;;;;;;;;;;;;4949030;29;19938;-84
2023/03/28 01:38:47;;;;;;;;;;;;;;;;;;4945195;28;19934;-84
2023/03/28 01:41:18;;;;;;;;;;;;;;;;;;4943288;29;19931;-84
2023/03/28 01:43:48;;;;;;;;;;;;;;;;;;4951200;28;20404;-84
2023/03/28 01:46:19;;;;;;;;;;;;;;;;;;4927082;29;19923;-84
2023/03/28 01:48:53;;;;;;;;;;;;;;;;;;4917602;29;19933;-84
2023/03/28 01:51:21;;;;;;;;;;;;;;;;;;4930701;29;19931;-83
2023/03/28 01:53:51;;;;;;;;;;;;;;;;;;4924764;29;19930;-84
2023/03/28 01:56:21;;;;;;;;;;;;;;;;;;4920636;29;19930;-84
2023/03/28 01:58:51;;;;;;;;;;;;;;;;;;4930747;29;20411;-84
2023/03/28 02:01:29;;;;;;;;;;;;;;;;;;4916049;29;19996;-84
2023/03/28 02:03:59;;;;;;;;;;;;;;;;;;4920256;29;19930;-84
2023/03/28 02:06:34;;;;;;;;;;;;;;;;;;4936999;29;20301;-84
2023/03/28 02:09:04;;;;;;;;;;;;;;;;;;4946514;28;19938;-84
2023/03/28 02:11:47;;;;;;;;;;;;;;;;;;4933294;29;20381;-84
2023/03/28 02:14:36;;;;;;;;;;;;;;;;;;4921933;29;19929;-84
2023/03/28 02:17:42;;;;;;;;;;;;;;;;;;4938128;29;20313;-84
2023/03/28 02:20:38;;;;;;;;;;;;;;;;;;4927451;29;20298;-84
2023/03/28 02:23:26;;;;;;;;;;;;;;;;;;4933298;28;19930;-84
2023/03/28 02:26:13;;;;;;;;;;;;;;;;;;4930472;29;19922;-84
2023/03/28 02:28:56;;;;;;;;;;;;;;;;;;4929348;29;19927;-85
2023/03/28 02:31:34;;;;;;;;;;;;;;;;;;4932704;29;20301;-84
2023/03/28 02:34:02;;;;;;;;;;;;;;;;;;4938766;29;19922;-84
2023/03/28 02:36:31;;;;;;;;;;;;;;;;;;4944866;29;19929;-84
2023/03/28 02:39:06;;;;;;;;;;;;;;;;;;4939286;29;20304;-85
2023/03/28 02:41:36;;;;;;;;;;;;;;;;;;4938489;29;19930;-84
2023/03/28 02:44:11;;;;;;;;;;;;;;;;;;4954276;28;19923;-84
2023/03/28 02:46:42;;;;;;;;;;;;;;;;;;4931830;29;19923;-84
2023/03/28 02:49:22;;;;;;;;;;;;;;;;;;4922508;29;19965;-84
2023/03/28 02:51:51;;;;;;;;;;;;;;;;;;4916844;29;20008;-84
2023/03/28 02:54:24;;;;;;;;;;;;;;;;;;4925378;29;20293;-85
2023/03/28 02:57:15;;;;;;;;;;;;;;;;;;4930748;29;19933;-84
2023/03/28 02:59:51;;;;;;;;;;;;;;;;;;4937151;29;19926;-84
2023/03/28 03:02:21;;;;;;;;;;;;;;;;;;4940001;29;19971;-85
2023/03/28 03:04:49;;;;;;;;;;;;;;;;;;4933507;29;19923;-84
2023/03/28 03:07:19;;;;;;;;;;;;;;;;;;4940916;29;19923;-84
2023/03/28 03:09:46;;;;;;;;;;;;;;;;;;4931497;29;19927;-84
2023/03/28 03:12:14;;;;;;;;;;;;;;;;;;4909509;29;19930;-84
2023/03/28 03:14:41;;;;;;;;;;;;;;;;;;4946897;28;19922;-84
2023/03/28 03:17:34;;;;;;;;;;;;;;;;;;4929802;29;20304;-84
2023/03/28 03:20:05;;;;;;;;;;;;;;;;;;4933488;29;19923;-84
2023/03/28 03:22:36;;;;;;;;;;;;;;;;;;4944013;28;19926;-84
2023/03/28 03:25:05;;;;;;;;;;;;;;;;;;4926385;29;19930;-84
2023/03/28 03:27:38;;;;;;;;;;;;;;;;;;4925166;29;20309;-84
2023/03/28 03:30:10;;;;;;;;;;;;;;;;;;4920669;29;20316;-84
2023/03/28 03:33:10;;;;;;;;;;;;;;;;;;4920297;29;19923;-84
2023/03/28 03:35:40;;;;;;;;;;;;;;;;;;4932725;29;19927;-84
2023/03/28 03:38:07;;;;;;;;;;;;;;;;;;4922370;29;19929;-84
2023/03/28 03:40:38;;;;;;;;;;;;;;;;;;4920818;29;19930;-84
2023/03/28 03:43:06;;;;;;;;;;;;;;;;;;4919983;29;19946;-84
2023/03/28 03:45:36;;;;;;;;;;;;;;;;;;4921136;29;19923;-84
2023/03/28 03:48:06;;;;;;;;;;;;;;;;;;4928361;29;19945;-84
2023/03/28 03:50:33;;;;;;;;;;;;;;;;;;4912050;29;19923;-84
2023/03/28 03:53:05;;;;;;;;;;;;;;;;;;4926570;29;20327;-85
2023/03/28 03:55:38;;;;;;;;;;;;;;;;;;4929913;29;19930;-85
2023/03/28 03:58:07;;;;;;;;;;;;;;;;;;4929971;29;19923;-85
2023/03/28 04:00:36;;;;;;;;;;;;;;;;;;4945659;28;19923;-85
2023/03/28 04:03:04;;;;;;;;;;;;;;;;;;4933848;29;19930;-85
2023/03/28 04:05:31;;;;;;;;;;;;;;;;;;4947340;28;20405;-84
2023/03/28 04:08:01;;;;;;;;;;;;;;;;;;4953241;28;19923;-84
2023/03/28 04:10:33;;;;;;;;;;;;;;;;;;4936576;29;20195;-85
2023/03/28 04:13:00;;;;;;;;;;;;;;;;;;4925597;29;20385;-85
2023/03/28 04:15:32;;;;;;;;;;;;;;;;;;4935543;28;19946;-85
2023/03/28 04:18:19;;;;;;;;;;;;;;;;;;4933949;29;20391;-84
2023/03/28 04:20:52;;;;;;;;;;;;;;;;;;4917210;29;19929;-84
2023/03/28 04:23:42;;;;;;;;;;;;;;;;;;4928312;29;19923;-84
2023/03/28 04:26:24;;;;;;;;;;;;;;;;;;4933615;29;19922;-84
2023/03/28 04:28:59;;;;;;;;;;;;;;;;;;4920015;29;19938;-84
2023/03/28 04:31:34;;;;;;;;;;;;;;;;;;4925943;29;20274;-84
2023/03/28 04:34:24;;;;;;;;;;;;;;;;;;4926556;29;20412;-84
2023/03/28 04:37:05;;;;;;;;;;;;;;;;;;4948970;29;20369;-84
2023/03/28 04:39:40;;;;;;;;;;;;;;;;;;4932313;29;19929;-84
2023/03/28 04:42:27;;;;;;;;;;;;;;;;;;4931721;29;19930;-84
2023/03/28 04:45:07;;;;;;;;;;;;;;;;;;4953123;23;20304;-82
2023/03/28 04:47:38;;;;;;;;;;;;;;;;;;4964111;28;19933;-82
2023/03/28 04:50:08;;;;;;;;;;;;;;;;;;4938188;28;20431;-83
2023/03/28 04:52:39;;;;;;;;;;;;;;;;;;4952119;28;19934;-83
2023/03/28 04:55:06;;;;;;;;;;;;;;;;;;4929044;29;19922;-82
2023/03/28 04:57:37;;;;;;;;;;;;;;;;;;4949500;29;19922;-82
2023/03/28 05:00:09;;;;;;;;;;;;;;;;;;4921689;29;20285;-82
2023/03/28 05:02:56;;;;;;;;;;;;;;;;;;4940085;28;20421;-83
2023/03/28 05:05:27;;;;;;;;;;;;;;;;;;4918947;29;19927;-82
2023/03/28 05:07:55;;;;;;;;;;;;;;;;;;4929134;29;19938;-82
2023/03/28 05:10:23;;;;;;;;;;;;;;;;;;4925897;28;20609;-81
2023/03/28 05:12:51;;;;;;;;;;;;;;;;;;4940532;28;19922;-82
2023/03/28 05:15:20;;;;;;;;;;;;;;;;;;4939300;29;19931;-82
2023/03/28 05:18:01;;;;;;;;;;;;;;;;;;4927981;29;20278;-82
2023/03/28 05:20:36;;;;;;;;;;;;;;;;;;4942932;28;19931;-82
2023/03/28 05:23:05;;;;;;;;;;;;;;;;;;4929455;29;21114;-82
2023/03/28 05:25:34;;;;;;;;;;;;;;;;;;4927472;29;22392;-82
2023/03/28 05:28:01;;;;;;;;;;;;;;;;;;4934949;29;19927;-82
2023/03/28 05:30:29;;;;;;;;;;;;;;;;;;4914974;29;19930;-82
2023/03/28 05:33:01;;;;;;;;;;;;;;;;;;4938867;29;22073;-82
2023/03/28 05:35:29;;;;;;;;;;;;;;;;;;4938916;28;19930;-82
2023/03/28 05:37:57;;;;;;;;;;;;;;;;;;4936114;29;19926;-82
2023/03/28 05:40:24;;;;;;;;;;;;;;;;;;4931681;29;19930;-83
2023/03/28 05:42:51;;;;;;;;;;;;;;;;;;4919531;29;22369;-82
2023/03/28 05:45:21;;;;;;;;;;;;;;;;;;4931773;28;20401;-82
2023/03/28 05:48:10;;;;;;;;;;;;;;;;;;4923426;29;19937;-82
2023/03/28 05:50:37;;;;;;;;;;;;;;;;;;4919892;29;20015;-83
2023/03/28 05:53:06;;;;;;;;;;;;;;;;;;4931270;29;19930;-82
2023/03/28 05:55:34;;;;;;;;;;;;;;;;;;4929305;29;19930;-82
2023/03/28 05:58:04;;;;;;;;;;;;;;;;;;4928258;29;19934;-82
2023/03/28 06:00:40;;;;;;;;;;;;;;;;;;4942946;29;19923;-82
2023/03/28 06:03:08;;;;;;;;;;;;;;;;;;4942751;29;19937;-82
2023/03/28 06:05:42;;;;;;;;;;;;;;;;;;4946844;29;19926;-83
2023/03/28 06:08:18;;;;;;;;;;;;;;;;;;4950311;29;19929;-83
2023/03/28 06:10:45;;;;;;;;;;;;;;;;;;4949755;29;20504;-83
2023/03/28 06:13:20;;;;;;;;;;;;;;;;;;4942031;29;20412;-83
2023/03/28 06:15:48;;;;;;;;;;;;;;;;;;4947879;29;20382;-83
2023/03/28 06:18:16;;;;;;;;;;;;;;;;;;4949803;29;20400;-83
2023/03/28 06:20:50;;;;;;;;;;;;;;;;;;4937747;29;19930;-84
2023/03/28 06:23:17;;;;;;;;;;;;;;;;;;4924082;29;20428;-83
2023/03/28 06:25:44;;;;;;;;;;;;;;;;;;4934574;29;19930;-84
2023/03/28 06:28:13;;;;;;;;;;;;;;;;;;4931369;29;19922;-84
2023/03/28 06:31:00;;;;;;;;;;;;;;;;;;4948104;28;19930;-85
2023/03/28 06:33:28;;;;;;;;;;;;;;;;;;4934292;29;19923;-84
2023/03/28 06:35:56;;;;;;;;;;;;;;;;;;4945791;28;19930;-84
2023/03/28 06:38:24;;;;;;;;;;;;;;;;;;4949734;29;19922;-84
2023/03/28 06:40:55;;;;;;;;;;;;;;;;;;4933840;29;19922;-84
2023/03/28 06:43:22;;;;;;;;;;;;;;;;;;4928734;29;19930;-85
2023/03/28 06:46:08;;;;;;;;;;;;;;;;;;4942298;28;19929;-85
2023/03/28 06:48:44;;;;;;;;;;;;;;;;;;4943869;29;20432;-86
2023/03/28 06:51:24;;;;;;;;;;;;;;;;;;4943102;28;19929;-86
2023/03/28 06:53:54;;;;;;;;;;;;;;;;;;4932500;29;20397;-86
2023/03/28 06:56:25;;;;;;;;;;;;;;;;;;4952293;29;19929;-86
2023/03/28 06:58:52;;;;;;;;;;;;;;;;;;4943701;28;19923;-86
2023/03/28 07:01:26;;;;;;;;;;;;;;;;;;4930664;29;19927;-85
2023/03/28 07:04:16;;;;;;;;;;;;;;;;;;4951633;28;19923;-86
2023/03/28 07:06:48;;;;;;;;;;;;;;;;;;4953100;29;20402;-85
2023/03/28 07:09:15;;;;;;;;;;;;;;;;;;4938488;29;19922;-85
2023/03/28 07:11:50;;;;;;;;;;;;;;;;;;4947752;29;19923;-86
2023/03/28 07:14:20;;;;;;;;;;;;;;;;;;4935538;29;20384;-85
2023/03/28 07:16:47;;;;;;;;;;;;;;;;;;4936523;29;20296;-86
2023/03/28 07:19:17;;;;;;;;;;;;;;;;;;4945683;29;19923;-85
2023/03/28 07:21:48;;;;;;;;;;;;;;;;;;4947679;29;19927;-85
2023/03/28 07:24:15;;;;;;;;;;;;;;;;;;4941559;29;19922;-85
2023/03/28 07:26:53;;;;;;;;;;;;;;;;;;4948295;28;19945;-86
2023/03/28 07:29:20;;;;;;;;;;;;;;;;;;4932278;29;19922;-86
2023/03/28 07:31:48;;;;;;;;;;;;;;;;;;4944626;29;19923;-85
2023/03/28 07:34:17;;;;;;;;;;;;;;;;;;4944264;28;19922;-86
2023/03/28 07:36:44;;;;;;;;;;;;;;;;;;4952791;29;19922;-85
2023/03/28 07:39:21;;;;;;;;;;;;;;;;;;4926204;29;19926;-87
2023/03/28 07:41:50;;;;;;;;;;;;;;;;;;4934981;29;19930;-87
2023/03/28 07:44:17;;;;;;;;;;;;;;;;;;4941833;29;19930;-87
2023/03/28 07:46:45;;;;;;;;;;;;;;;;;;4948070;29;19922;-87
2023/03/28 07:49:15;;;;;;;;;;;;;;;;;;4950659;28;20211;-87
2023/03/28 07:51:42;;;;;;;;;;;;;;;;;;4942577;29;19923;-87
2023/03/28 07:54:16;;;;;;;;;;;;;;;;;;4940302;29;19927;-88
2023/03/28 07:56:45;;;;;;;;;;;;;;;;;;4944045;29;19922;-87
2023/03/28 07:59:31;;;;;;;;;;;;;;;;;;4948245;29;19923;-88
2023/03/28 08:02:00;;;;;;;;;;;;;;;;;;4929533;29;20364;-87
2023/03/28 08:04:29;;;;;;;;;;;;;;;;;;4942924;29;19923;-88
2023/03/28 08:07:06;;;;;;;;;;;;;;;;;;4951562;29;19950;-88
2023/03/28 08:09:37;;;;;;;;;;;;;;;;;;4934180;29;19927;-87
2023/03/28 08:12:18;;;;;;;;;;;;;;;;;;4942184;29;19995;-87
2023/03/28 08:14:47;;;;;;;;;;;;;;;;;;4926263;29;19926;-88
2023/03/28 08:17:18;;;;;;;;;;;;;;;;;;4950173;29;19930;-88
2023/03/28 08:19:47;;;;;;;;;;;;;;;;;;4943506;29;19926;-88
2023/03/28 08:22:14;;;;;;;;;;;;;;;;;;4942696;29;19929;-88
2023/03/28 08:24:53;;;;;;;;;;;;;;;;;;4931227;29;19922;-88
2023/03/28 08:27:24;;;;;;;;;;;;;;;;;;4940411;29;19942;-88
2023/03/28 08:29:57;;;;;;;;;;;;;;;;;;4942916;29;20412;-88
2023/03/28 08:32:25;;;;;;;;;;;;;;;;;;4942614;29;19939;-87
2023/03/28 08:34:56;;;;;;;;;;;;;;;;;;4923237;29;19938;-87
2023/03/28 08:37:24;;;;;;;;;;;;;;;;;;4945221;29;20288;-87
2023/03/28 08:39:54;;;;;;;;;;;;;;;;;;4942511;29;19924;-89
2023/03/28 08:42:39;;;;;;;;;;;;;;;;;;4933053;29;20025;-88
2023/03/28 08:45:11;;;;;;;;;;;;;;;;;;4947719;28;20304;-87
2023/03/28 08:47:42;;;;;;;;;;;;;;;;;;4945208;29;20101;-88
2023/03/28 08:50:13;;;;;;;;;;;;;;;;;;4932619;29;19937;-88
2023/03/28 08:52:42;;;;;;;;;;;;;;;;;;4919809;29;19930;-88
2023/03/28 08:55:15;;;;;;;;;;;;;;;;;;4919960;29;20297;-88
2023/03/28 08:57:43;;;;;;;;;;;;;;;;;;4919278;29;19923;-88
2023/03/28 09:00:14;;;;;;;;;;;;;;;;;;4919273;29;19931;-88
2023/03/28 09:02:41;;;;;;;;;;;;;;;;;;4912277;29;19923;-88
2023/03/28 09:05:10;;;;;;;;;;;;;;;;;;4920501;29;20281;-88
2023/03/28 09:07:39;;;;;;;;;;;;;;;;;;4922613;29;21148;-88
2023/03/28 09:10:10;;;;;;;;;;;;;;;;;;4920830;29;19922;-88
2023/03/28 09:13:02;;;;;;;;;;;;;;;;;;4934919;29;19969;-88
2023/03/28 09:15:50;;;;;;;;;;;;;;;;;;4933244;28;19931;-88
2023/03/28 09:25:09;;;;;;;;;;;;;;;;;;5036343;23;19922;-87
2023/03/28 09:27:54;;;;;;;;;;;;;;;;;;4936184;29;19922;-89
2023/03/28 09:30:23;;;;;;;;;;;;;;;;;;4938959;29;20406;-90
2023/03/28 09:32:51;;;;;;;;;;;;;;;;;;4951616;29;20406;-88
2023/03/28 09:35:21;;;;;;;;;;;;;;;;;;4936166;29;20388;-88
2023/03/28 09:37:49;;;;;;;;;;;;;;;;;;4934356;29;19923;-87
2023/03/28 09:40:18;;;;;;;;;;;;;;;;;;4917493;29;19927;-87
2023/03/28 09:43:10;;;;;;;;;;;;;;;;;;4941232;29;19927;-87
2023/03/28 09:45:51;;;;;;;;;;;;;;;;;;4930556;29;19931;-88
2023/03/28 09:48:56;;;;;;;;;;;;;;;;;;4919474;29;19926;-88
2023/03/28 09:51:28;;;;;;;;;;;;;;;;;;4921477;29;19929;-88
2023/03/28 09:53:56;;;;;;;;;;;;;;;;;;4935113;29;19938;-88
2023/03/28 09:56:25;;;;;;;;;;;;;;;;;;4933315;29;19930;-91
2023/03/28 09:58:53;;;;;;;;;;;;;;;;;;4940744;29;19934;-90
2023/03/28 10:01:45;;;;;;;;;;;;;;;;;;4939648;28;20396;-90
2023/03/28 10:04:32;;;;;;;;;;;;;;;;;;4945512;28;19930;-88
2023/03/28 10:07:27;;;;;;;;;;;;;;;;;;4944484;28;19923;-90
2023/03/28 10:09:59;;;;;;;;;;;;;;;;;;4933028;29;19922;-88
2023/03/28 10:12:33;;;;;;;;;;;;;;;;;;4940032;29;19930;-91
2023/03/28 10:15:00;;;;;;;;;;;;;;;;;;4912317;29;20360;-88
2023/03/28 10:17:46;;;;;;;;;;;;;;;;;;4951719;29;19973;-87
2023/03/28 10:20:17;;;;;;;;;;;;;;;;;;4931397;29;19923;-91
2023/03/28 10:22:53;;;;;;;;;;;;;;;;;;4930003;29;19930;-89
2023/03/28 10:25:30;;;;;;;;;;;;;;;;;;4929124;29;19930;-88
2023/03/28 10:27:59;;;;;;;;;;;;;;;;;;4935673;29;20340;-86
2023/03/28 10:30:31;;;;;;;;;;;;;;;;;;4931865;29;19922;-89
2023/03/28 10:33:09;;;;;;;;;;;;;;;;;;4929517;29;19923;-90
2023/03/28 10:35:58;;;;;;;;;;;;;;;;;;4946266;28;20020;-89
2023/03/28 10:38:37;;;;;;;;;;;;;;;;;;4915782;29;19923;-88
2023/03/28 10:41:24;;;;;;;;;;;;;;;;;;4937211;29;19922;-90
2023/03/28 10:44:16;;;;;;;;;;;;;;;;;;4931860;29;19927;-90
2023/03/28 15:11:01;;;;;;;;;;;;;;;;;;5911942;24;20375;-87
2023/03/28 15:13:30;;;;;;;;;;;;;;;;;;6060489;23;19928;-86
2023/03/28 15:15:59;;;;;;;;;;;;;;;;;;6133125;23;19921;-86
2023/03/28 15:18:32;;;;;;;;;;;;;;;;;;6185041;23;19921;-86
2023/03/28 15:20:59;;;;;;;;;;;;;;;;;;6193059;23;19921;-86
2023/03/28 15:23:30;;;;;;;;;;;;;;;;;;6157439;23;20363;-86
2023/03/28 15:26:03;;;;;;;;;;;;;;;;;;6160406;23;20260;-86
2023/03/28 15:28:30;;;;;;;;;;;;;;;;;;6158132;23;20482;-87
2023/03/28 15:30:58;;;;;;;;;;;;;;;;;;6156670;23;19924;-86
2023/03/28 15:33:25;;;;;;;;;;;;;;;;;;6185063;23;19920;-86
2023/03/28 15:36:04;;;;;;;;;;;;;;;;;;6183293;23;19920;-86
2023/03/28 15:38:36;;;;;;;;;;;;;;;;;;6158210;23;19924;-87
2023/03/28 15:41:17;;;;;;;;;;;;;;;;;;6133321;23;19955;-87
2023/03/28 15:43:56;;;;;;;;;;;;;;;;;;6132014;23;19921;-87
2023/03/28 15:46:28;;;;;;;;;;;;;;;;;;6158310;23;20129;-87
2023/03/28 15:48:57;;;;;;;;;;;;;;;;;;6167685;23;19932;-86
2023/03/28 15:51:24;;;;;;;;;;;;;;;;;;6157760;23;20355;-86
2023/03/28 15:53:53;;;;;;;;;;;;;;;;;;6155784;23;19931;-87
2023/03/28 15:56:22;;;;;;;;;;;;;;;;;;6157767;23;19924;-86
2023/03/28 15:58:49;;;;;;;;;;;;;;;;;;6183683;23;19927;-86
2023/03/28 16:01:18;;;;;;;;;;;;;;;;;;6184390;23;19920;-86
2023/03/28 16:03:45;;;;;;;;;;;;;;;;;;6154817;23;19920;-86
2023/03/28 16:06:17;;;;;;;;;;;;;;;;;;6155716;23;20256;-92
2023/03/28 16:08:44;;;;;;;;;;;;;;;;;;6192032;23;19927;-86
2023/03/28 16:11:16;;;;;;;;;;;;;;;;;;6191684;23;19947;-86
2023/03/28 16:14:04;;;;;;;;;;;;;;;;;;6120731;23;19924;-86
2023/03/28 16:16:53;;;;;;;;;;;;;;;;;;6156186;23;20272;-86
2023/03/28 16:19:26;;;;;;;;;;;;;;;;;;6132171;23;19920;-86
2023/03/28 16:21:56;;;;;;;;;;;;;;;;;;6157334;23;19927;-86
2023/03/28 16:24:22;;;;;;;;;;;;;;;;;;6205521;23;19924;-86
2023/03/28 16:26:49;;;;;;;;;;;;;;;;;;6157370;23;19920;-86
2023/03/28 16:29:18;;;;;;;;;;;;;;;;;;6192015;23;19935;-85
2023/03/28 16:31:48;;;;;;;;;;;;;;;;;;6191256;23;19920;-86
2023/03/28 16:34:17;;;;;;;;;;;;;;;;;;6179106;23;19925;-85
2023/03/28 16:36:44;;;;;;;;;;;;;;;;;;6181115;23;20233;-86
2023/03/28 16:39:16;;;;;;;;;;;;;;;;;;6164335;23;19924;-86
2023/03/28 16:41:43;;;;;;;;;;;;;;;;;;6183422;23;19924;-85
2023/03/28 16:44:10;;;;;;;;;;;;;;;;;;6182597;23;19924;-86
2023/03/28 16:49:24;;;;;;;;;;;;;;;;;;6181074;23;20226;-86
2023/03/28 16:51:53;;;;;;;;;;;;;;;;;;6181573;23;19927;-86
2023/03/28 16:54:20;;;;;;;;;;;;;;;;;;6155925;23;19927;-86
2023/03/28 16:56:50;;;;;;;;;;;;;;;;;;6181817;23;19927;-86
2023/03/28 16:59:19;;;;;;;;;;;;;;;;;;6181733;23;19920;-86
2023/03/28 17:01:48;;;;;;;;;;;;;;;;;;6157219;23;19920;-86
2023/03/28 17:04:15;;;;;;;;;;;;;;;;;;6183853;23;19927;-86
2023/03/28 17:06:46;;;;;;;;;;;;;;;;;;6179773;23;19927;-87
2023/03/28 17:09:13;;;;;;;;;;;;;;;;;;6181854;23;19920;-86
2023/03/28 17:11:42;;;;;;;;;;;;;;;;;;6182450;23;19927;-86
2023/03/28 17:14:09;;;;;;;;;;;;;;;;;;6157235;23;19921;-89
2023/03/28 17:16:39;;;;;;;;;;;;;;;;;;6157483;23;19951;-86
2023/03/28 17:19:08;;;;;;;;;;;;;;;;;;6183326;23;19928;-90
2023/03/28 17:21:38;;;;;;;;;;;;;;;;;;6181753;23;19920;-87
2023/03/28 17:24:10;;;;;;;;;;;;;;;;;;6181542;23;19920;-86
2023/03/28 17:26:39;;;;;;;;;;;;;;;;;;6185883;23;19920;-87
2023/03/28 17:29:08;;;;;;;;;;;;;;;;;;6182946;23;20352;-87
2023/03/28 17:31:35;;;;;;;;;;;;;;;;;;6157879;23;19920;-87
2023/03/28 17:34:03;;;;;;;;;;;;;;;;;;6157834;23;19928;-89
2023/03/28 17:36:33;;;;;;;;;;;;;;;;;;6182087;23;20333;-88
2023/03/28 17:39:03;;;;;;;;;;;;;;;;;;6183695;23;19920;-88
2023/03/28 17:41:36;;;;;;;;;;;;;;;;;;6181485;23;19928;-88
2023/03/28 17:44:04;;;;;;;;;;;;;;;;;;6154673;23;19936;-88
2023/03/28 17:46:33;;;;;;;;;;;;;;;;;;6183188;23;19927;-88
2023/03/28 17:49:03;;;;;;;;;;;;;;;;;;6186771;23;19920;-88
2023/03/28 17:51:30;;;;;;;;;;;;;;;;;;6213183;23;19920;-88
2023/03/28 17:54:00;;;;;;;;;;;;;;;;;;6222685;23;19920;-88
2023/03/28 17:56:27;;;;;;;;;;;;;;;;;;6188397;23;19930;-88
2023/03/28 17:58:58;;;;;;;;;;;;;;;;;;6188690;23;19935;-88
2023/03/28 18:01:25;;;;;;;;;;;;;;;;;;6188810;23;19927;-88
2023/03/28 18:03:52;;;;;;;;;;;;;;;;;;6187207;23;19920;-87
2023/03/28 18:06:32;;;;;;;;;;;;;;;;;;6218395;23;19920;-88
2023/03/28 18:09:01;;;;;;;;;;;;;;;;;;6215333;23;19920;-87
2023/03/28 18:11:28;;;;;;;;;;;;;;;;;;6188743;23;19927;-88
2023/03/28 18:13:57;;;;;;;;;;;;;;;;;;6186622;23;19920;-87
2023/03/28 18:16:28;;;;;;;;;;;;;;;;;;6191289;23;19931;-87
2023/03/28 18:18:58;;;;;;;;;;;;;;;;;;6188601;23;19931;-88
2023/03/28 18:21:25;;;;;;;;;;;;;;;;;;6225435;23;19927;-87
2023/03/28 18:23:53;;;;;;;;;;;;;;;;;;6213408;23;19940;-87
2023/03/28 18:26:20;;;;;;;;;;;;;;;;;;6188951;23;19920;-88
2023/03/28 18:28:50;;;;;;;;;;;;;;;;;;6164099;23;19935;-88
2023/03/28 18:31:25;;;;;;;;;;;;;;;;;;6214430;23;20363;-88
2023/03/28 18:33:54;;;;;;;;;;;;;;;;;;6223927;23;19930;-89
2023/03/28 18:36:21;;;;;;;;;;;;;;;;;;6214584;23;20287;-88
2023/03/28 18:38:51;;;;;;;;;;;;;;;;;;6188515;23;19923;-88
2023/03/28 18:41:18;;;;;;;;;;;;;;;;;;6198506;23;19927;-88
2023/03/28 18:43:46;;;;;;;;;;;;;;;;;;6162158;23;20120;-88
2023/03/28 18:46:15;;;;;;;;;;;;;;;;;;6188268;23;20260;-88
2023/03/28 18:48:43;;;;;;;;;;;;;;;;;;6161012;23;19920;-88
2023/03/28 18:51:12;;;;;;;;;;;;;;;;;;6188106;23;19920;-87
2023/03/28 18:53:42;;;;;;;;;;;;;;;;;;6224943;23;19919;-88
2023/03/28 18:56:09;;;;;;;;;;;;;;;;;;6213743;23;20337;-87
2023/03/28 18:58:37;;;;;;;;;;;;;;;;;;6187962;23;19924;-87
2023/03/28 19:01:07;;;;;;;;;;;;;;;;;;6213962;23;19924;-87
2023/03/28 19:03:38;;;;;;;;;;;;;;;;;;6187683;23;19935;-87
2023/03/28 19:06:06;;;;;;;;;;;;;;;;;;6219585;23;19920;-87
2023/03/28 19:08:39;;;;;;;;;;;;;;;;;;6224294;23;19926;-87
2023/03/28 19:11:10;;;;;;;;;;;;;;;;;;6162887;23;19942;-87
2023/03/28 19:13:39;;;;;;;;;;;;;;;;;;6213070;23;19927;-87
2023/03/28 19:16:07;;;;;;;;;;;;;;;;;;6162768;23;19927;-87
2023/03/28 19:18:37;;;;;;;;;;;;;;;;;;6224974;23;19942;-88
2023/03/28 19:21:07;;;;;;;;;;;;;;;;;;6187665;23;19921;-88
2023/03/28 19:23:35;;;;;;;;;;;;;;;;;;6161369;23;19927;-89
2023/03/28 19:26:04;;;;;;;;;;;;;;;;;;6214096;23;20359;-88
2023/03/28 19:28:33;;;;;;;;;;;;;;;;;;6223563;23;19943;-90
2023/03/28 19:31:01;;;;;;;;;;;;;;;;;;6187471;23;19920;-90
2023/03/28 19:33:30;;;;;;;;;;;;;;;;;;6222619;23;19927;-90
2023/03/28 19:35:58;;;;;;;;;;;;;;;;;;6218699;23;19947;-90
2023/03/28 19:38:26;;;;;;;;;;;;;;;;;;6211872;23;19927;-90
2023/03/28 19:40:56;;;;;;;;;;;;;;;;;;6214352;23;19934;-90
2023/03/28 19:43:25;;;;;;;;;;;;;;;;;;6186696;23;20260;-90
2023/03/28 19:46:00;;;;;;;;;;;;;;;;;;6220352;23;19930;-90
2023/03/28 19:48:27;;;;;;;;;;;;;;;;;;6213573;23;19927;-90
2023/03/28 19:50:56;;;;;;;;;;;;;;;;;;6214842;23;19920;-90
2023/03/28 19:53:23;;;;;;;;;;;;;;;;;;6187376;23;20336;-90
2023/03/28 19:55:51;;;;;;;;;;;;;;;;;;6163419;23;20251;-90
2023/03/28 19:58:18;;;;;;;;;;;;;;;;;;6213956;23;19920;-90
2023/03/28 20:00:47;;;;;;;;;;;;;;;;;;6214829;23;19943;-90
2023/03/28 20:03:14;;;;;;;;;;;;;;;;;;6213765;23;19927;-90
2023/03/28 20:05:41;;;;;;;;;;;;;;;;;;6188011;23;20245;-90
2023/03/28 20:08:08;;;;;;;;;;;;;;;;;;6213191;23;19928;-90
2023/03/28 20:10:41;;;;;;;;;;;;;;;;;;6213223;23;19927;-90
2023/03/28 20:13:08;;;;;;;;;;;;;;;;;;6186367;23;19924;-90
2023/03/28 20:15:36;;;;;;;;;;;;;;;;;;6212658;23;19920;-87
2023/03/28 20:18:05;;;;;;;;;;;;;;;;;;6182248;23;19920;-87
2023/03/28 20:20:32;;;;;;;;;;;;;;;;;;6212735;23;19927;-87
2023/03/28 20:23:01;;;;;;;;;;;;;;;;;;6186532;23;19943;-87
2023/03/28 20:25:28;;;;;;;;;;;;;;;;;;6214278;23;19920;-88
2023/03/28 20:27:58;;;;;;;;;;;;;;;;;;6185432;23;19931;-87
2023/03/28 20:30:25;;;;;;;;;;;;;;;;;;6214092;23;19927;-88
2023/03/28 20:32:52;;;;;;;;;;;;;;;;;;6213291;23;20264;-88
2023/03/28 20:35:20;;;;;;;;;;;;;;;;;;6186706;23;19920;-88
2023/03/28 20:37:49;;;;;;;;;;;;;;;;;;6220528;23;19927;-88
2023/03/28 20:40:16;;;;;;;;;;;;;;;;;;6214758;23;20340;-88
2023/03/28 20:42:43;;;;;;;;;;;;;;;;;;6221935;23;20348;-88
2023/03/28 20:45:21;;;;;;;;;;;;;;;;;;6222249;23;19924;-87
2023/03/28 20:47:49;;;;;;;;;;;;;;;;;;6190859;23;19927;-88
2023/03/28 20:50:15;;;;;;;;;;;;;;;;;;6186397;23;20340;-88
2023/03/28 20:52:44;;;;;;;;;;;;;;;;;;6211266;23;19924;-87
2023/03/28 20:55:11;;;;;;;;;;;;;;;;;;6213746;23;19923;-87
2023/03/28 20:57:41;;;;;;;;;;;;;;;;;;6212640;23;19927;-87
2023/03/28 21:00:11;;;;;;;;;;;;;;;;;;6186603;23;19927;-88
2023/03/28 21:02:38;;;;;;;;;;;;;;;;;;6196084;23;20078;-87
2023/03/28 21:05:06;;;;;;;;;;;;;;;;;;6212406;23;19920;-87
2023/03/28 21:07:33;;;;;;;;;;;;;;;;;;6186530;23;19927;-88
2023/03/28 21:10:02;;;;;;;;;;;;;;;;;;6185482;23;20383;-87
2023/03/28 21:12:32;;;;;;;;;;;;;;;;;;6223256;23;19920;-87
2023/03/28 21:14:59;;;;;;;;;;;;;;;;;;6212696;23;19928;-87
2023/03/28 21:17:29;;;;;;;;;;;;;;;;;;6163008;23;19939;-87
2023/03/28 21:19:58;;;;;;;;;;;;;;;;;;6185967;23;19924;-88
2023/03/28 21:22:26;;;;;;;;;;;;;;;;;;6214748;23;20336;-87
2023/03/28 21:24:53;;;;;;;;;;;;;;;;;;6214099;23;20359;-87
2023/03/28 21:27:22;;;;;;;;;;;;;;;;;;6213475;23;20370;-87
2023/03/28 21:29:51;;;;;;;;;;;;;;;;;;6224272;23;20255;-87
2023/03/28 21:32:18;;;;;;;;;;;;;;;;;;6224728;23;20340;-87
2023/03/28 21:34:47;;;;;;;;;;;;;;;;;;6189515;23;19923;-88
2023/03/28 21:37:16;;;;;;;;;;;;;;;;;;6214140;23;19920;-87
2023/03/28 21:39:46;;;;;;;;;;;;;;;;;;6188457;23;19927;-87
2023/03/28 21:42:12;;;;;;;;;;;;;;;;;;6215289;23;19920;-87
2023/03/28 21:44:41;;;;;;;;;;;;;;;;;;6187343;23;19927;-87
2023/03/28 21:47:13;;;;;;;;;;;;;;;;;;6212923;23;19927;-87
2023/03/28 21:49:42;;;;;;;;;;;;;;;;;;6187488;23;19920;-87